の過去48時間の天気

Polyarny

現在時刻: 9/28 18:35 +09 (9/28 09:35 UTC) 以下の時間は現地時間です。

過去48時間のMETAR気象情報
時間 風向 風速(m/s) 視程 気温(℃) 湿度(%) 気圧(hPa) 天気現象
28 18:00 南南東 4 2300m 1 93 995 弱い雪
28 17:30 3 2100m 2 75 996 弱い雪
28 17:00 南南東 3 8000m 2 64 996 弱いしゅう雪
28 16:30 南南西 3 10km以上 2 64 997
28 16:00 南南西 3 10km以上 3 60 997
28 15:30 南西 3 10km以上 3 56 998
28 15:00 南西 3 10km以上 2 60 998
28 14:30 南西 3 10km以上 2 60 998
28 14:00 西南西 3 10km以上 2 64 999
28 13:30 西南西 3 10km以上 1 69 999
28 13:00 西 3 10km以上 1 69 999
28 12:30 西南西 3 10km以上 1 69 999
28 12:00 西 4 10km以上 0 74 1000
28 11:30 西 4 10km以上 -1 80 1000
28 11:00 西 5 10km以上 -1 80 1000
28 10:30 西 4 10km以上 -1 80 1000
28 10:00 西 5 10km以上 -2 86 1000
28 09:30 西 4 10km以上 -2 86 1000
28 09:00 西 4 10km以上 -2 86 1000
28 08:30 西 4 10km以上 -2 86 1000
28 08:00 西 4 10km以上 -2 93 1000
28 07:30 西 4 10km以上 -2 93 1001
28 07:00 西 4 10km以上 -1 93 1000
28 06:30 西北西 5 10km以上 -1 93 1000
28 06:00 西北西 3 10km以上 0 93 1000
28 05:00 北西 5 10km以上 0 100 1000
28 04:00 西北西 3 8000m 0 100 1000 弱い雪
28 03:00 西北西 3 8000m 0 100 999 弱い雪
28 02:00 北西 3 10km以上 0 100 999
28 01:00 北西 4 10km以上 1 93 999
28 00:00 西 4 10km以上 1 100 999
27 23:00 西 3 6000m 1 100 999 弱い雨
27 22:00 西 4 10km以上 1 100 999
27 21:00 西南西 4 10km以上 1 93 999
27 20:00 西 3 10km以上 0 100 999
27 19:00 西南西 4 10km以上 0 100 999
27 18:00 西南西 4 3000m 0 100 999 弱いしゅう雪
27 17:00 南西 4 10km以上 2 87 999 弱い雨
27 16:00 南西 3 10km以上 3 70 999
27 15:00 南西 3 10km以上 4 65 1000
27 14:00 南西 4 10km以上 4 65 1001
27 13:00 南西 3 10km以上 4 70 1002
27 12:00 西南西 4 10km以上 2 81 1003
27 11:00 西 3 10km以上 1 93 1004
27 10:00 西 3 5000m 0 100 1004 もや
27 09:00 西北西 4 800m -1 100 1005 氷霧
27 08:00 西北西 4 500m -1 100 1006 氷霧
27 07:00 西 5 500m -2 100 1006 氷霧
27 06:00 西 4 5000m -2 100 1006
27 05:00 西 3 6000m -3 100 1007
27 04:00 西 4 5000m -1 86 1007
27 03:00 西北西 3 4200m 0 86 1007
27 02:00 西 3 4200m 1 80 1007
27 01:00 西北西 3 4100m 2 81 1007
27 00:00 北西 3 4100m 3 75 1007
26 23:00 北西 3 4100m 3 75 1008
26 22:00 北西 2 4100m 3 75 1008
26 21:00 西北西 2 4100m 2 81 1008
26 20:00 西北西 2 4200m 3 75 1008
26 19:00 不定 1 4200m 3 75 1007
UERP 280900Z 16004MPS 2300 -SN BKN007 OVC100 01/M00 Q0995 R35/290150 NOSIG RMK QFE702
UERP 280830Z 17003MPS 2100 -SN BKN007 OVC100 02/M02 Q0996 R17/090070 NOSIG RMK QFE703
UERP 280800Z 15003MPS 8000 -SHSN BKN014CB OVC100 02/M04 Q0996 R17/090070 NOSIG RMK QFE703
UERP 280730Z 20003G08MPS 9999 BKN016CB OVC100 02/M04 Q0997 R35/090070 NOSIG RMK QFE703
UERP 280700Z 20003G08MPS 9999 BKN016CB OVC100 03/M04 Q0997 R35/090070 NOSIG RMK QFE704
UERP 280630Z 22003G08MPS 9999 SCT016CB OVC100 03/M05 Q0998 R35/090070 NOSIG RMK QFE704
UERP 280600Z 23003G08MPS 9999 SCT023 BKN100 02/M05 Q0998 R35/090070 NOSIG RMK QFE704
UERP 280530Z 23003G08MPS 9999 SCT023 BKN100 02/M05 Q0998 R35/090070 NOSIG RMK QFE705
UERP 280500Z 24003G08MPS 9999 SCT016 BKN100 02/M04 Q0999 R35/090070 NOSIG RMK QFE705
UERP 280430Z 25003G08MPS 9999 SCT020 BKN100 01/M04 Q0999 R35/090070 NOSIG RMK QFE705
UERP 280400Z 26003G08MPS 9999 SCT016 BKN100 01/M04 Q0999 R35/090070 NOSIG RMK QFE705
UERP 280330Z 24003G08MPS 9999 SCT016 BKN100 01/M04 Q0999 R35/090070 NOSIG RMK QFE705
UERP 280300Z 26004G09MPS 9999 SCT016 BKN100 M00/M04 Q1000 R35/750040 NOSIG RMK QFE706
UERP 280230Z 27004G09MPS 9999 SCT016 BKN100 M01/M04 Q1000 R35/750040 NOSIG RMK QFE706
UERP 280200Z 26005G10MPS 9999 SCT015 BKN100 M01/M04 Q1000 R35/750040 NOSIG RMK QFE706
UERP 280130Z 26004G09MPS 9999 SCT015 BKN100 M01/M04 Q1000 R35/750040 NOSIG RMK QFE706
UERP 280100Z 27005G10MPS 9999 SCT015 OVC100 M02/M04 Q1000 R35/750040 NOSIG RMK QFE706
UERP 280030Z 27004G09MPS 9999 SCT015 OVC100 M02/M04 Q1000 R35/750040 NOSIG RMK QFE706
UERP 280000Z 28004G09MPS 9999 SCT015 BKN100 M02/M04 Q1000 R35/750040 NOSIG RMK QFE706
UERP 272330Z 27004G09MPS 9999 SCT015 BKN100 M02/M04 Q1000 R35/750040 NOSIG RMK QFE706
UERP 272300Z 27004G09MPS 9999 SCT016 BKN100 M02/M03 Q1000 R35/750132 NOSIG RMK QFE706
UERP 272230Z 27004MPS 9999 SCT016 BKN100 M02/M03 Q1001 NOSIG RMK QFE706
UERP 272200Z 28004MPS 9999 BKN014 OVC100 M01/M02 Q1000 NOSIG RMK QFE706
UERP 272130Z 29005MPS 9999 BKN011 OVC100 M01/M02 Q1000 NOSIG RMK QFE706
UERP 272100Z 30003G08MPS 9999 BKN009 OVC100 M00/M01 Q1000 NOSIG RMK QFE706
UERP 272000Z 31005G10MPS 9999 BKN007 OVC100 M00/M00 Q1000 NOSIG RMK QFE706
UERP 271900Z 30003G08MPS 8000 -SN BKN007 OVC100 00/M00 Q1000 NOSIG RMK QFE706
UERP 271800Z 30003G08MPS 8000 -SN BKN007 OVC100 00/M00 Q0999 NOSIG RMK QFE705
UERP 271700Z 31003G08MPS 9999 BKN009 OVC100 00/00 Q0999 NOSIG RMK QFE705
UERP 271600Z 31004G09MPS 9999 BKN009 OVC100 01/00 Q0999 NOSIG RMK QFE705
UERP 271500Z 27004MPS 9999 BKN009 OVC100 01/01 Q0999 NOSIG RMK QFE705
UERP 271400Z 27003MPS 6000 -RA BKN007 OVC100 01/01 Q0999 NOSIG RMK QFE705
UERP 271300Z 27004MPS 9999 BKN015 OVC100 01/01 Q0999 NOSIG RMK QFE705
UERP 271200Z 25004MPS 9999 BKN015 OVC100 01/00 Q0999 NOSIG RMK QFE705
UERP 271100Z 27003MPS 9999 BKN009 OVC100 00/00 Q0999 NOSIG RMK QFE705
UERP 271000Z 24004MPS 9999 BKN008 OVC100 00/00 Q0999 NOSIG RMK QFE705
UERP 270900Z 24004MPS 3000 -SHSN BKN007CB OVC100 00/M00 Q0999 NOSIG RMK QFE705
UERP 270800Z 23004MPS 9999 -RA BKN009 OVC100 02/00 Q0999 NOSIG RMK QFE705
UERP 270700Z 22003MPS 9999 BKN016 OVC100 03/M02 Q0999 NOSIG RMK QFE705
UERP 270600Z 22003MPS 9999 BKN020 OVC100 04/M02 Q1000 NOSIG RMK QFE706
UERP 270500Z 23004MPS 9999 SCT016 OVC100 04/M02 Q1001 NOSIG RMK QFE707
UERP 270400Z 22003MPS 9999 SCT016 BKN100 04/M01 Q1002 NOSIG RMK QFE707
UERP 270300Z 24004MPS 9999 BKN012 OVC100 02/M01 Q1003 NOSIG RMK QFE708
UERP 270200Z 26003MPS 9999 BKN009 OVC100 01/M00 Q1004 NOSIG RMK QFE709
UERP 270100Z 27003MPS 5000 BR OVC005 M00/M00 Q1004 NOSIG RMK QBB160 QFE709
UERP 270000Z 29004MPS 0800 FZFG VV004 M01/M01 Q1005 NOSIG RMK QBB120 QFE710
UERP 262300Z 29004MPS 0500 FZFG VV004 M01/M01 Q1006 NOSIG RMK QBB130 QFE710
UERP 262200Z 27005MPS 0500 FZFG VV004 M02/M02 Q1006 NOSIG RMK QBB120 QFE710
UERP 262100Z 27004MPS 5000 FU SCT020 BKN300 M02/M02 Q1006 NOSIG RMK QFE711
UERP 262000Z 27003MPS 6000 NSC M03/M03 Q1007 NOSIG RMK QFE711
UERP 261900Z 28004MPS 5000 FU SCT100 M01/M03 Q1007 NOSIG RMK QFE711
UERP 261800Z 29003MPS 4200 FU SCT100 M00/M02 Q1007 NOSIG RMK QFE711
UERP 261700Z 28003MPS 4200 FU SCT100 01/M02 Q1007 NOSIG RMK QFE711
UERP 261600Z 29003MPS 4100 FU SCT100 02/M01 Q1007 NOSIG RMK QFE711
UERP 261500Z 32003MPS 4100 FU SCT100 03/M01 Q1007 NOSIG RMK QFE711
UERP 261400Z 32003MPS 4100 FU SCT100 03/M01 Q1008 NOSIG RMK QFE712
UERP 261300Z 31002MPS 4100 FU SCT100 03/M01 Q1008 NOSIG RMK QFE712
UERP 261200Z 30002MPS 4100 FU SCT100 02/M01 Q1008 NOSIG RMK QFE712
UERP 261100Z 29002MPS 4200 FU SCT100 03/M01 Q1008 NOSIG RMK QFE712
UERP 261000Z VRB01MPS 4200 FU SCT100 03/M01 Q1007 NOSIG RMK QFE711